createdAt,value
2022-10-19T00:01:17.877Z,9.30
2022-10-19T00:06:25.103Z,9.30
2022-10-19T00:08:55.410Z,9.57
2022-10-19T00:11:24.770Z,9.18
2022-10-19T00:13:53.397Z,9.23
2022-10-19T00:16:22.022Z,9.30
2022-10-19T00:18:50.801Z,8.90
2022-10-19T00:21:20.284Z,9.25
2022-10-19T00:23:49.234Z,9.40
2022-10-19T00:26:19.538Z,8.85
2022-10-19T00:28:48.092Z,8.60
2022-10-19T00:31:18.114Z,8.68
2022-10-19T00:33:47.538Z,8.48
2022-10-19T00:36:20.755Z,8.93
2022-10-19T00:38:49.605Z,8.70
2022-10-19T00:41:20.085Z,8.52
2022-10-19T00:43:54.133Z,8.32
2022-10-19T00:46:23.154Z,7.93
2022-10-19T00:48:52.125Z,8.23
2022-10-19T00:51:20.877Z,8.55
2022-10-19T00:53:49.667Z,8.40
2022-10-19T00:56:19.718Z,7.80
2022-10-19T00:58:48.261Z,8.10
2022-10-19T01:01:19.024Z,7.97
2022-10-19T01:03:47.685Z,8.18
2022-10-19T01:06:16.444Z,8.43
2022-10-19T01:08:45.247Z,8.35
2022-10-19T01:11:25.390Z,7.70
2022-10-19T01:14:01.948Z,7.93
2022-10-19T01:16:37.631Z,7.65
2022-10-19T01:19:14.076Z,7.82
2022-10-19T01:21:43.469Z,7.75
2022-10-19T01:24:52.566Z,7.43
2022-10-19T01:27:50.722Z,7.32
2022-10-19T01:30:27.038Z,7.65
2022-10-19T01:33:10.013Z,7.43
2022-10-19T01:35:43.759Z,7.38
2022-10-19T01:38:23.370Z,7.18
2022-10-19T01:40:57.393Z,7.18
2022-10-19T01:43:35.088Z,7.22
2022-10-19T01:46:08.634Z,6.68
2022-10-19T01:48:37.646Z,7.15
2022-10-19T01:51:08.648Z,7.03
2022-10-19T01:53:41.669Z,7.40
2022-10-19T01:56:10.425Z,7.22
2022-10-19T01:58:39.038Z,7.22
2022-10-19T02:03:39.899Z,6.78
2022-10-19T02:06:09.079Z,6.95
2022-10-19T02:08:40.493Z,6.78
2022-10-19T02:11:09.108Z,6.70
2022-10-19T02:13:37.745Z,7.03
2022-10-19T02:16:11.006Z,7.00
2022-10-19T02:18:42.132Z,7.07
2022-10-19T02:21:10.751Z,6.70
2022-10-19T02:23:39.246Z,7.05
2022-10-19T02:26:08.344Z,6.35
2022-10-19T02:28:36.824Z,6.65
2022-10-19T02:31:05.848Z,6.53
2022-10-19T02:33:35.734Z,6.80
2022-10-19T02:36:05.009Z,6.10
2022-10-19T02:38:33.487Z,6.80
2022-10-19T02:41:07.523Z,6.78
2022-10-19T02:43:38.478Z,6.47
2022-10-19T02:46:10.543Z,6.45
2022-10-19T02:48:40.649Z,6.00
2022-10-19T02:51:24.189Z,5.90
2022-10-19T02:53:52.858Z,6.30
2022-10-19T02:56:21.382Z,6.47
2022-10-19T02:58:50.113Z,6.20
2022-10-19T03:01:18.779Z,6.53
2022-10-19T03:03:48.841Z,6.15
2022-10-19T03:06:17.353Z,6.50
2022-10-19T03:08:46.188Z,6.40
2022-10-19T03:11:14.747Z,6.22
2022-10-19T03:13:43.596Z,6.25
2022-10-19T03:16:13.471Z,6.20
2022-10-19T03:18:42.029Z,6.47
2022-10-19T03:21:13.248Z,5.80
2022-10-19T03:23:42.000Z,6.25
2022-10-19T03:26:13.080Z,6.43
2022-10-19T03:28:41.882Z,6.15
2022-10-19T03:31:10.474Z,6.40
2022-10-19T03:33:39.171Z,6.10
2022-10-19T03:36:23.799Z,5.70
2022-10-19T03:38:52.904Z,6.07
2022-10-19T03:41:21.569Z,5.90
2022-10-19T03:43:50.334Z,6.15
2022-10-19T03:46:19.061Z,5.90
2022-10-19T03:48:47.916Z,5.30
2022-10-19T03:51:17.902Z,6.38
2022-10-19T03:53:47.950Z,5.47
2022-10-19T03:56:18.304Z,6.00
2022-10-19T03:58:48.835Z,6.00
2022-10-19T04:01:19.400Z,5.80
2022-10-19T04:03:48.254Z,6.40
2022-10-19T04:06:21.263Z,5.75
2022-10-19T04:08:52.221Z,5.43
2022-10-19T04:11:22.222Z,5.47
2022-10-19T04:13:51.352Z,5.80
2022-10-19T04:16:20.490Z,5.10
2022-10-19T04:18:49.069Z,5.75
2022-10-19T04:21:24.934Z,5.60
2022-10-19T04:23:58.345Z,5.38
2022-10-19T04:26:26.843Z,5.60
2022-10-19T04:28:55.418Z,5.50
2022-10-19T04:31:25.028Z,5.60
2022-10-19T04:33:53.576Z,5.07
2022-10-19T04:36:22.826Z,5.82
2022-10-19T04:38:51.373Z,5.47
2022-10-19T04:41:22.367Z,5.40
2022-10-19T04:43:51.300Z,6.13
2022-10-19T04:46:20.694Z,5.82
2022-10-19T04:48:49.821Z,6.22
2022-10-19T04:51:18.790Z,5.55
2022-10-19T04:53:47.287Z,6.50
2022-10-19T04:56:18.167Z,5.38
2022-10-19T04:58:48.024Z,5.40
2022-10-19T05:01:18.180Z,4.70
2022-10-19T05:03:47.112Z,5.20
2022-10-19T05:06:16.278Z,5.28
2022-10-19T05:08:44.823Z,5.13
2022-10-19T05:11:14.858Z,5.50
2022-10-19T05:13:43.489Z,5.15
2022-10-19T05:16:14.794Z,5.00
2022-10-19T05:18:43.369Z,6.80
2022-10-19T05:21:13.236Z,12.25
2022-10-19T05:23:42.493Z,8.23
2022-10-19T05:26:12.579Z,16.38
2022-10-19T05:28:41.177Z,18.45
2022-10-19T05:31:11.424Z,12.13
2022-10-19T05:33:41.664Z,10.52
2022-10-19T05:36:18.069Z,10.23
2022-10-19T05:38:47.338Z,9.95
2022-10-19T05:41:16.449Z,9.15
2022-10-19T05:43:45.152Z,8.90
2022-10-19T05:46:17.613Z,8.25
2022-10-19T05:48:47.618Z,7.82
2022-10-19T05:51:18.043Z,8.73
2022-10-19T05:53:46.747Z,8.93
2022-10-19T05:56:18.429Z,8.32
2022-10-19T05:58:47.081Z,7.90
2022-10-19T06:01:15.682Z,8.10
2022-10-19T06:03:44.865Z,7.40
2022-10-19T06:06:14.874Z,8.32
2022-10-19T06:08:43.398Z,8.07
2022-10-19T06:11:13.274Z,8.20
2022-10-19T06:13:42.717Z,7.88
2022-10-19T06:16:11.932Z,7.45
2022-10-19T06:18:42.892Z,7.25
2022-10-19T06:21:14.687Z,7.82
2022-10-19T06:23:43.381Z,7.05
2022-10-19T06:26:13.287Z,7.57
2022-10-19T06:28:43.345Z,7.70
2022-10-19T06:31:12.577Z,7.50
2022-10-19T06:33:41.415Z,7.43
2022-10-19T06:36:10.681Z,7.90
2022-10-19T06:38:40.814Z,7.47
2022-10-19T06:41:09.531Z,7.80
2022-10-19T06:43:38.105Z,8.18
2022-10-19T06:46:07.242Z,7.93
2022-10-19T06:48:36.746Z,8.85
2022-10-19T06:51:07.535Z,8.57
2022-10-19T06:53:36.721Z,9.90
2022-10-19T06:56:08.213Z,9.05
2022-10-19T06:58:37.535Z,9.95
2022-10-19T07:01:08.563Z,9.57
2022-10-19T07:03:37.725Z,9.77
2022-10-19T07:06:08.148Z,9.95
2022-10-19T07:08:37.623Z,9.85
2022-10-19T07:11:09.465Z,11.63
2022-10-19T07:13:38.235Z,10.55
2022-10-19T07:16:08.795Z,10.25
2022-10-19T07:18:37.706Z,10.25
2022-10-19T07:21:08.032Z,10.00
2022-10-19T07:23:37.782Z,9.50
2022-10-19T07:26:09.760Z,10.25
2022-10-19T07:28:38.411Z,10.13
2022-10-19T07:31:08.340Z,10.18
2022-10-19T07:33:36.978Z,9.63
2022-10-19T07:36:07.428Z,8.13
2022-10-19T07:38:36.472Z,7.10
2022-10-19T07:41:07.801Z,6.75
2022-10-19T07:43:36.659Z,6.88
2022-10-19T07:46:07.275Z,6.35
2022-10-19T07:48:36.393Z,5.75
2022-10-19T07:51:06.911Z,6.50
2022-10-19T07:53:35.730Z,6.20
2022-10-19T07:56:05.416Z,5.70
2022-10-19T07:58:36.536Z,5.90
2022-10-19T08:01:06.673Z,5.93
2022-10-19T08:06:24.244Z,5.60
2022-10-19T08:08:53.409Z,5.30
2022-10-19T08:11:23.551Z,5.75
2022-10-19T08:13:54.289Z,5.88
2022-10-19T08:16:27.103Z,5.18
2022-10-19T08:18:59.844Z,5.50
2022-10-19T08:21:28.579Z,5.35
2022-10-19T08:23:57.291Z,5.10
2022-10-19T08:26:25.859Z,5.53
2022-10-19T08:29:00.529Z,4.68
2022-10-19T08:31:29.042Z,5.00
2022-10-19T08:33:57.780Z,4.70
2022-10-19T08:36:28.563Z,4.80
2022-10-19T08:38:57.169Z,4.95
2022-10-19T08:41:31.909Z,4.60
2022-10-19T08:44:26.000Z,4.85
2022-10-19T08:47:05.220Z,4.95
2022-10-19T08:49:35.841Z,4.38
2022-10-19T08:52:08.684Z,4.60
2022-10-19T08:54:42.503Z,4.88
2022-10-19T08:57:16.889Z,4.60
2022-10-19T08:59:51.157Z,4.78
2022-10-19T09:02:23.668Z,4.70
2022-10-19T09:04:55.529Z,4.22
2022-10-19T09:07:28.968Z,4.03
2022-10-19T09:09:59.730Z,4.20
2022-10-19T09:12:36.973Z,4.03
2022-10-19T09:15:11.333Z,3.97
2022-10-19T09:17:39.811Z,3.83
2022-10-19T09:20:19.850Z,4.20
2022-10-19T09:22:52.188Z,4.32
2022-10-19T09:25:22.195Z,4.30
2022-10-19T09:27:54.296Z,4.22
2022-10-19T09:30:24.669Z,3.75
2022-10-19T09:32:59.728Z,4.00
2022-10-19T09:35:31.438Z,3.92
2022-10-19T09:37:59.936Z,3.90
2022-10-19T09:40:30.189Z,3.80
2022-10-19T09:42:59.442Z,4.03
2022-10-19T09:45:37.794Z,3.65
2022-10-19T09:48:15.415Z,3.78
2022-10-19T09:50:44.992Z,3.65
2022-10-19T09:53:20.094Z,3.80
2022-10-19T09:55:51.494Z,3.65
2022-10-19T09:58:20.731Z,3.30
2022-10-19T10:00:51.846Z,3.47
2022-10-19T10:03:26.944Z,3.53
2022-10-19T10:05:58.125Z,3.63
2022-10-19T10:08:31.206Z,3.55
2022-10-19T10:11:08.098Z,3.40
2022-10-19T10:13:40.816Z,3.20
2022-10-19T10:16:12.615Z,3.70
2022-10-19T10:18:55.105Z,3.13
2022-10-19T10:21:25.896Z,3.55
2022-10-19T10:24:05.385Z,3.25
2022-10-19T10:29:04.230Z,3.70
2022-10-19T10:31:34.289Z,3.30
2022-10-19T10:34:11.160Z,2.88
2022-10-19T10:36:52.637Z,2.75
2022-10-19T10:39:21.375Z,2.83
2022-10-19T10:41:50.085Z,3.50
2022-10-19T10:44:22.063Z,3.22
2022-10-19T10:46:57.290Z,3.40
2022-10-19T10:49:28.701Z,3.03
2022-10-19T10:51:58.809Z,3.20
2022-10-19T10:54:28.447Z,2.90
2022-10-19T10:57:16.697Z,3.03
2022-10-19T10:59:56.541Z,2.60
2022-10-19T11:02:36.190Z,3.22
2022-10-19T11:05:26.594Z,3.20
2022-10-19T11:08:00.088Z,2.90
2022-10-19T11:10:31.386Z,2.92
2022-10-19T11:13:05.609Z,2.90
2022-10-19T11:15:38.229Z,3.03
2022-10-19T11:18:17.616Z,3.05
2022-10-19T11:20:53.593Z,2.92
2022-10-19T11:23:41.894Z,2.90
2022-10-19T11:26:34.792Z,2.83
2022-10-19T11:29:30.339Z,2.83
2022-10-19T11:31:58.948Z,3.10
2022-10-19T11:34:44.789Z,2.95
2022-10-19T11:37:21.223Z,2.80
2022-10-19T11:40:00.236Z,2.90
2022-10-19T11:42:42.695Z,2.80
2022-10-19T11:45:18.631Z,2.55
2022-10-19T11:48:12.907Z,2.72
2022-10-19T11:50:58.400Z,2.70
2022-10-19T11:53:34.859Z,2.80
2022-10-19T11:56:07.857Z,2.50
2022-10-19T11:58:45.350Z,2.78
2022-10-19T12:01:22.277Z,2.60
2022-10-19T12:04:20.483Z,2.80
2022-10-19T12:06:57.957Z,2.90
2022-10-19T12:09:35.510Z,3.03
2022-10-19T12:12:26.423Z,2.88
2022-10-19T12:15:14.726Z,2.70
2022-10-19T12:17:44.805Z,2.90
2022-10-19T12:20:21.634Z,2.50
2022-10-19T12:22:51.659Z,2.70
2022-10-19T12:25:20.355Z,2.80
2022-10-19T12:27:50.811Z,2.83
2022-10-19T12:30:20.988Z,2.40
2022-10-19T12:33:03.390Z,2.58
2022-10-19T12:35:55.872Z,3.05
2022-10-19T12:38:30.903Z,2.70
2022-10-19T12:41:05.173Z,2.80
2022-10-19T12:43:39.583Z,2.78
2022-10-19T12:46:16.258Z,3.10
2022-10-19T12:48:44.968Z,2.90
2022-10-19T12:51:16.453Z,2.50
2022-10-19T12:53:49.120Z,2.67
2022-10-19T12:56:23.261Z,2.60
2022-10-19T12:58:55.506Z,2.63
2022-10-19T13:01:27.375Z,2.70
2022-10-19T13:04:09.993Z,2.40
2022-10-19T13:06:39.929Z,2.70
2022-10-19T13:09:10.902Z,2.80
2022-10-19T13:11:39.431Z,3.10
2022-10-19T13:14:08.858Z,2.70
2022-10-19T13:16:59.116Z,2.72
2022-10-19T13:19:27.782Z,2.50
2022-10-19T13:22:29.315Z,3.03
2022-10-19T13:25:27.161Z,2.75
2022-10-19T13:27:58.039Z,2.72
2022-10-19T13:31:08.214Z,2.70
2022-10-19T13:33:52.956Z,2.80
2022-10-19T13:36:22.160Z,2.85
2022-10-19T13:39:13.934Z,2.65
2022-10-19T13:41:53.901Z,2.80
2022-10-19T13:44:28.561Z,2.60
2022-10-19T13:47:12.449Z,2.97
2022-10-19T13:50:01.557Z,2.53
2022-10-19T13:53:09.242Z,2.47
2022-10-19T13:56:23.273Z,7.95
2022-10-19T14:00:03.531Z,4.00
2022-10-19T14:02:59.681Z,2.70
2022-10-19T14:05:53.789Z,2.65
2022-10-19T14:09:01.323Z,2.80
2022-10-19T14:11:33.383Z,2.78
2022-10-19T14:14:18.977Z,2.90
2022-10-19T14:16:50.392Z,3.00
2022-10-19T14:19:27.167Z,2.72
2022-10-19T14:21:57.780Z,3.05
2022-10-19T14:24:31.207Z,3.20
2022-10-19T14:27:02.258Z,3.20
2022-10-19T14:29:44.611Z,2.88
2022-10-19T14:32:13.371Z,3.00
2022-10-19T14:34:43.930Z,2.80
2022-10-19T14:37:16.062Z,2.80
2022-10-19T14:39:44.537Z,2.60
2022-10-19T14:42:13.591Z,2.60
2022-10-19T14:44:43.187Z,2.72
2022-10-19T14:47:21.453Z,9.63
2022-10-19T14:49:51.415Z,26.15
2022-10-19T14:52:22.993Z,22.60
2022-10-19T14:54:53.013Z,8.80
2022-10-19T14:57:25.840Z,6.10
2022-10-19T14:59:55.968Z,4.10
2022-10-19T15:02:26.227Z,4.15
2022-10-19T15:04:56.443Z,3.47
2022-10-19T15:07:27.348Z,3.75
2022-10-19T15:09:57.395Z,3.30
2022-10-19T15:12:29.617Z,3.47
2022-10-19T15:15:00.465Z,3.17
2022-10-19T15:17:30.356Z,3.60
2022-10-19T15:20:01.542Z,3.70
2022-10-19T15:22:41.058Z,3.30
2022-10-19T15:25:36.936Z,3.65
2022-10-19T15:28:22.836Z,3.58
2022-10-19T15:31:01.686Z,3.15
2022-10-19T15:33:30.226Z,3.03
2022-10-19T15:36:08.644Z,3.00
2022-10-19T15:38:37.200Z,3.03
2022-10-19T15:41:06.225Z,3.45
2022-10-19T15:43:52.766Z,3.47
2022-10-19T15:46:32.695Z,3.70
2022-10-19T15:49:04.403Z,3.75
2022-10-19T15:51:55.398Z,3.97
2022-10-19T15:54:24.030Z,3.80
2022-10-19T15:56:54.014Z,4.20
2022-10-19T15:59:23.840Z,3.85
2022-10-19T16:01:53.789Z,3.78
2022-10-19T16:04:24.537Z,4.43
2022-10-19T16:06:53.394Z,3.80
2022-10-19T16:09:23.654Z,3.60
2022-10-19T16:11:56.823Z,4.30
2022-10-19T16:14:26.512Z,4.30
2022-10-19T16:16:55.700Z,3.75
2022-10-19T16:19:24.336Z,4.13
2022-10-19T16:21:52.991Z,4.32
2022-10-19T16:24:22.988Z,3.72
2022-10-19T16:26:51.659Z,4.60
2022-10-19T16:29:20.218Z,3.97
2022-10-19T16:31:48.753Z,4.35
2022-10-19T16:34:17.421Z,3.75
2022-10-19T16:36:46.111Z,4.15
2022-10-19T16:39:15.196Z,4.13
2022-10-19T16:41:45.369Z,3.90
2022-10-19T16:44:14.002Z,4.43
2022-10-19T16:46:42.502Z,3.80
2022-10-19T16:49:11.319Z,4.18
2022-10-19T16:51:40.533Z,3.80
2022-10-19T16:54:10.223Z,4.15
2022-10-19T16:56:39.382Z,4.18
2022-10-19T16:59:09.311Z,4.32
2022-10-19T17:01:37.990Z,4.82
2022-10-19T17:04:06.816Z,4.20
2022-10-19T17:06:35.396Z,4.72
2022-10-19T17:11:52.866Z,4.45
2022-10-19T17:14:23.119Z,4.28
2022-10-19T17:16:51.668Z,4.47
2022-10-19T17:19:20.299Z,4.50
2022-10-19T17:21:49.543Z,4.93
2022-10-19T17:24:21.975Z,4.68
2022-10-19T17:26:51.761Z,4.38
2022-10-19T17:29:23.705Z,4.53
2022-10-19T17:31:52.360Z,4.57
2022-10-19T17:34:20.969Z,3.97
2022-10-19T17:36:49.754Z,4.50
2022-10-19T17:39:21.464Z,4.50
2022-10-19T17:41:52.341Z,4.20
2022-10-19T17:44:22.988Z,4.90
2022-10-19T17:46:51.515Z,4.70
2022-10-19T17:49:19.990Z,4.68
2022-10-19T17:51:48.769Z,4.80
2022-10-19T17:54:17.293Z,4.30
2022-10-19T17:56:46.227Z,4.00
2022-10-19T17:59:14.866Z,4.25
2022-10-19T18:01:44.792Z,4.70
2022-10-19T18:04:13.401Z,4.55
2022-10-19T18:06:42.111Z,4.40
2022-10-19T18:09:13.718Z,4.82
2022-10-19T18:11:44.858Z,3.97
2022-10-19T18:14:14.563Z,4.30
2022-10-19T18:16:45.812Z,4.40
2022-10-19T18:19:14.612Z,4.43
2022-10-19T18:21:45.307Z,4.50
2022-10-19T18:24:19.674Z,4.05
2022-10-19T18:26:48.366Z,4.38
2022-10-19T18:29:17.922Z,4.07
2022-10-19T18:31:51.483Z,4.05
2022-10-19T18:34:21.630Z,3.90
2022-10-19T18:36:50.379Z,3.58
2022-10-19T18:39:18.939Z,3.72
2022-10-19T18:41:49.345Z,4.13
2022-10-19T18:44:23.525Z,4.32
2022-10-19T18:46:56.576Z,3.88
2022-10-19T18:49:25.502Z,4.40
2022-10-19T18:51:55.723Z,4.05
2022-10-19T18:54:26.498Z,4.00
2022-10-19T18:56:56.028Z,4.47
2022-10-19T18:59:24.619Z,3.72
2022-10-19T19:01:53.288Z,3.60
2022-10-19T19:04:23.359Z,3.97
2022-10-19T19:06:51.999Z,3.40
2022-10-19T19:09:21.292Z,3.85
2022-10-19T19:11:50.158Z,3.88
2022-10-19T19:14:20.993Z,3.30
2022-10-19T19:16:49.569Z,3.83
2022-10-19T19:19:19.221Z,3.88
2022-10-19T19:21:49.980Z,4.05
2022-10-19T19:24:19.969Z,3.33
2022-10-19T19:26:50.151Z,3.45
2022-10-19T19:29:18.967Z,3.72
2022-10-19T19:31:47.886Z,3.55
2022-10-19T19:34:16.454Z,3.60
2022-10-19T19:36:48.047Z,3.28
2022-10-19T19:39:21.102Z,3.22
2022-10-19T19:41:50.160Z,3.42
2022-10-19T19:44:19.287Z,3.40
2022-10-19T19:46:47.885Z,3.83
2022-10-19T19:49:16.574Z,3.53
2022-10-19T19:51:45.062Z,2.95
2022-10-19T19:54:13.814Z,3.30
2022-10-19T19:56:43.766Z,3.25
2022-10-19T19:59:14.376Z,3.17
2022-10-19T20:01:43.021Z,3.70
2022-10-19T20:04:11.992Z,2.95
2022-10-19T20:06:40.924Z,3.45
2022-10-19T20:09:10.693Z,3.53
2022-10-19T20:11:42.313Z,3.17
2022-10-19T20:14:13.362Z,3.53
2022-10-19T20:16:41.857Z,3.30
2022-10-19T20:19:11.948Z,3.33
2022-10-19T20:21:40.456Z,3.00
2022-10-19T20:24:09.046Z,2.95
2022-10-19T20:26:37.594Z,3.35
2022-10-19T20:29:13.378Z,2.92
2022-10-19T20:31:42.309Z,3.13
2022-10-19T20:34:12.355Z,3.80
2022-10-19T20:36:41.022Z,3.20
2022-10-19T20:39:09.726Z,3.20
2022-10-19T20:41:38.313Z,3.55
2022-10-19T20:44:07.097Z,3.17
2022-10-19T20:46:37.823Z,2.90
2022-10-19T20:49:07.401Z,3.35
2022-10-19T20:51:37.183Z,3.15
2022-10-19T20:54:07.618Z,3.33
2022-10-19T20:56:37.361Z,3.17
2022-10-19T20:59:07.737Z,3.10
2022-10-19T21:01:39.041Z,3.28
2022-10-19T21:04:09.586Z,3.20
2022-10-19T21:06:40.690Z,3.40
2022-10-19T21:09:09.402Z,3.22
2022-10-19T21:11:39.738Z,3.17
2022-10-19T21:14:09.554Z,3.20
2022-10-19T21:16:41.101Z,2.92
2022-10-19T21:19:13.929Z,3.28
2022-10-19T21:21:43.813Z,3.50
2022-10-19T21:24:13.821Z,3.20
2022-10-19T21:26:42.392Z,3.60
2022-10-19T21:29:11.451Z,3.00
2022-10-19T21:31:44.133Z,3.30
2022-10-19T21:34:16.446Z,3.15
2022-10-19T21:36:45.112Z,3.38
2022-10-19T21:39:13.675Z,3.20
2022-10-19T21:41:42.401Z,3.10
2022-10-19T21:44:10.891Z,3.40
2022-10-19T21:46:40.887Z,3.10
2022-10-19T21:49:10.719Z,3.47
2022-10-19T21:51:42.631Z,3.30
2022-10-19T21:54:14.623Z,2.97
2022-10-19T21:56:43.261Z,3.40
2022-10-19T21:59:27.330Z,3.20
2022-10-19T22:02:06.952Z,3.17
2022-10-19T22:04:35.581Z,3.20
2022-10-19T22:07:05.335Z,3.13
2022-10-19T22:09:34.196Z,3.08
2022-10-19T22:12:02.952Z,3.38
2022-10-19T22:14:31.636Z,3.20
2022-10-19T22:17:00.165Z,3.20
2022-10-19T22:19:30.243Z,3.00
2022-10-19T22:21:58.750Z,2.80
2022-10-19T22:24:27.324Z,3.40
2022-10-19T22:26:56.005Z,3.40
2022-10-19T22:29:24.636Z,3.10
2022-10-19T22:31:53.167Z,3.38
2022-10-19T22:34:21.769Z,3.17
2022-10-19T22:36:51.671Z,3.20
2022-10-19T22:39:20.361Z,3.60
2022-10-19T22:43:06.118Z,3.88
2022-10-19T22:45:35.657Z,3.20
2022-10-19T22:48:04.221Z,3.30
2022-10-19T22:50:32.918Z,3.25
2022-10-19T22:53:02.892Z,3.50
2022-10-19T22:55:31.605Z,3.42
2022-10-19T22:58:00.326Z,3.22
2022-10-19T23:00:29.118Z,3.55
2022-10-19T23:02:57.719Z,3.65
2022-10-19T23:05:26.457Z,3.25
2022-10-19T23:07:55.096Z,3.35
2022-10-19T23:10:25.257Z,3.20
2022-10-19T23:12:54.210Z,3.92
2022-10-19T23:15:23.071Z,3.53
2022-10-19T23:17:51.715Z,3.47
2022-10-19T23:20:20.424Z,3.67
2022-10-19T23:22:48.938Z,3.72
2022-10-19T23:25:17.895Z,3.53
2022-10-19T23:27:49.435Z,3.45
2022-10-19T23:30:18.437Z,3.40
2022-10-19T23:32:47.010Z,3.58
2022-10-19T23:35:15.925Z,3.50
2022-10-19T23:37:44.565Z,3.50
2022-10-19T23:40:13.944Z,3.40
2022-10-19T23:42:42.465Z,3.53
2022-10-19T23:45:15.240Z,3.88
2022-10-19T23:47:43.733Z,3.50
2022-10-19T23:50:12.264Z,3.13
2022-10-19T23:52:41.803Z,3.55
2022-10-19T23:55:10.980Z,3.78
2022-10-19T23:57:39.608Z,3.67
